sensor_id;sensor_type;location;lat;lon;timestamp;P1;durP1;ratioP1;P2;durP2;ratioP2
23718;SDS011;43322;52.230;5.702;2024-01-27T00:00:13;24.15;;;5.38;;
23718;SDS011;43322;52.230;5.702;2024-01-27T00:02:40;16.67;;;4.93;;
23718;SDS011;43322;52.230;5.702;2024-01-27T00:05:07;12.57;;;4.80;;
23718;SDS011;43322;52.230;5.702;2024-01-27T00:07:34;23.15;;;5.22;;
23718;SDS011;43322;52.230;5.702;2024-01-27T00:10:01;19.88;;;4.70;;
23718;SDS011;43322;52.230;5.702;2024-01-27T00:12:30;17.52;;;4.80;;
23718;SDS011;43322;52.230;5.702;2024-01-27T00:14:56;16.58;;;5.03;;
23718;SDS011;43322;52.230;5.702;2024-01-27T00:17:23;13.40;;;4.28;;
23718;SDS011;43322;52.230;5.702;2024-01-27T00:19:51;16.67;;;4.10;;
23718;SDS011;43322;52.230;5.702;2024-01-27T00:22:18;17.75;;;4.93;;
23718;SDS011;43322;52.230;5.702;2024-01-27T00:24:45;18.05;;;5.20;;
23718;SDS011;43322;52.230;5.702;2024-01-27T00:27:12;24.90;;;5.35;;
23718;SDS011;43322;52.230;5.702;2024-01-27T00:29:40;22.80;;;5.07;;
23718;SDS011;43322;52.230;5.702;2024-01-27T00:32:07;19.42;;;5.10;;
23718;SDS011;43322;52.230;5.702;2024-01-27T00:34:34;22.45;;;5.55;;
23718;SDS011;43322;52.230;5.702;2024-01-27T00:37:01;18.08;;;4.80;;
23718;SDS011;43322;52.230;5.702;2024-01-27T00:39:27;19.02;;;5.63;;
23718;SDS011;43322;52.230;5.702;2024-01-27T00:41:55;20.85;;;5.35;;
23718;SDS011;43322;52.230;5.702;2024-01-27T00:44:23;19.45;;;4.70;;
23718;SDS011;43322;52.230;5.702;2024-01-27T00:46:51;18.30;;;4.80;;
23718;SDS011;43322;52.230;5.702;2024-01-27T00:49:18;16.40;;;4.65;;
23718;SDS011;43322;52.230;5.702;2024-01-27T00:51:45;19.58;;;4.90;;
23718;SDS011;43322;52.230;5.702;2024-01-27T00:54:12;13.75;;;4.68;;
23718;SDS011;43322;52.230;5.702;2024-01-27T00:56:39;17.73;;;5.13;;
23718;SDS011;43322;52.230;5.702;2024-01-27T00:59:05;19.95;;;5.30;;
23718;SDS011;43322;52.230;5.702;2024-01-27T01:01:32;18.88;;;4.93;;
23718;SDS011;43322;52.230;5.702;2024-01-27T01:04:00;27.35;;;4.85;;
23718;SDS011;43322;52.230;5.702;2024-01-27T01:06:27;12.50;;;5.22;;
23718;SDS011;43322;52.230;5.702;2024-01-27T01:08:54;14.32;;;4.38;;
23718;SDS011;43322;52.230;5.702;2024-01-27T01:11:21;29.10;;;4.70;;
23718;SDS011;43322;52.230;5.702;2024-01-27T01:13:47;19.30;;;5.25;;
23718;SDS011;43322;52.230;5.702;2024-01-27T01:16:14;14.20;;;4.30;;
23718;SDS011;43322;52.230;5.702;2024-01-27T01:18:41;13.45;;;4.53;;
23718;SDS011;43322;52.230;5.702;2024-01-27T01:21:09;20.63;;;4.18;;
23718;SDS011;43322;52.230;5.702;2024-01-27T01:23:36;19.23;;;4.68;;
23718;SDS011;43322;52.230;5.702;2024-01-27T01:26:03;22.98;;;4.95;;
23718;SDS011;43322;52.230;5.702;2024-01-27T01:28:30;27.55;;;5.55;;
23718;SDS011;43322;52.230;5.702;2024-01-27T01:30:57;20.23;;;4.65;;
23718;SDS011;43322;52.230;5.702;2024-01-27T01:33:24;22.63;;;4.95;;
23718;SDS011;43322;52.230;5.702;2024-01-27T01:35:51;20.05;;;4.85;;
23718;SDS011;43322;52.230;5.702;2024-01-27T01:38:19;17.08;;;5.32;;
23718;SDS011;43322;52.230;5.702;2024-01-27T01:40:46;19.98;;;4.53;;
23718;SDS011;43322;52.230;5.702;2024-01-27T01:43:13;22.45;;;4.85;;
23718;SDS011;43322;52.230;5.702;2024-01-27T01:45:40;19.73;;;4.53;;
23718;SDS011;43322;52.230;5.702;2024-01-27T01:48:07;11.52;;;4.15;;
23718;SDS011;43322;52.230;5.702;2024-01-27T01:50:34;22.90;;;5.55;;
23718;SDS011;43322;52.230;5.702;2024-01-27T01:53:02;18.60;;;5.13;;
23718;SDS011;43322;52.230;5.702;2024-01-27T01:55:30;11.45;;;4.68;;
23718;SDS011;43322;52.230;5.702;2024-01-27T01:57:58;21.30;;;5.25;;
23718;SDS011;43322;52.230;5.702;2024-01-27T02:00:24;16.42;;;5.03;;
23718;SDS011;43322;52.230;5.702;2024-01-27T02:02:51;19.67;;;5.22;;
23718;SDS011;43322;52.230;5.702;2024-01-27T02:05:18;26.67;;;5.22;;
23718;SDS011;43322;52.230;5.702;2024-01-27T02:07:45;16.63;;;5.65;;
23718;SDS011;43322;52.230;5.702;2024-01-27T02:10:12;18.77;;;5.18;;
23718;SDS011;43322;52.230;5.702;2024-01-27T02:12:42;19.17;;;6.20;;
23718;SDS011;43322;52.230;5.702;2024-01-27T02:15:09;20.20;;;4.63;;
23718;SDS011;43322;52.230;5.702;2024-01-27T02:17:37;14.30;;;5.72;;
23718;SDS011;43322;52.230;5.702;2024-01-27T02:20:05;20.88;;;5.20;;
23718;SDS011;43322;52.230;5.702;2024-01-27T02:22:32;15.98;;;4.60;;
23718;SDS011;43322;52.230;5.702;2024-01-27T02:25:00;14.18;;;4.95;;
23718;SDS011;43322;52.230;5.702;2024-01-27T02:27:28;15.43;;;4.70;;
23718;SDS011;43322;52.230;5.702;2024-01-27T02:29:55;17.80;;;4.70;;
23718;SDS011;43322;52.230;5.702;2024-01-27T02:32:21;18.38;;;5.18;;
23718;SDS011;43322;52.230;5.702;2024-01-27T02:34:48;23.05;;;4.80;;
23718;SDS011;43322;52.230;5.702;2024-01-27T02:37:15;14.23;;;5.00;;
23718;SDS011;43322;52.230;5.702;2024-01-27T02:39:42;17.75;;;4.85;;
23718;SDS011;43322;52.230;5.702;2024-01-27T02:42:10;14.00;;;4.95;;
23718;SDS011;43322;52.230;5.702;2024-01-27T02:44:37;17.25;;;5.28;;
23718;SDS011;43322;52.230;5.702;2024-01-27T02:47:03;26.27;;;5.45;;
23718;SDS011;43322;52.230;5.702;2024-01-27T02:49:30;17.52;;;4.88;;
23718;SDS011;43322;52.230;5.702;2024-01-27T02:51:57;22.85;;;6.13;;
23718;SDS011;43322;52.230;5.702;2024-01-27T02:54:24;21.23;;;5.30;;
23718;SDS011;43322;52.230;5.702;2024-01-27T02:56:52;19.85;;;6.07;;
23718;SDS011;43322;52.230;5.702;2024-01-27T02:59:20;18.25;;;5.25;;
23718;SDS011;43322;52.230;5.702;2024-01-27T03:01:47;16.40;;;4.85;;
23718;SDS011;43322;52.230;5.702;2024-01-27T03:04:14;19.27;;;5.10;;
23718;SDS011;43322;52.230;5.702;2024-01-27T03:06:40;14.65;;;4.80;;
23718;SDS011;43322;52.230;5.702;2024-01-27T03:09:07;14.30;;;5.68;;
23718;SDS011;43322;52.230;5.702;2024-01-27T03:11:35;21.48;;;5.22;;
23718;SDS011;43322;52.230;5.702;2024-01-27T03:14:02;10.02;;;4.00;;
23718;SDS011;43322;52.230;5.702;2024-01-27T03:16:30;17.27;;;5.03;;
23718;SDS011;43322;52.230;5.702;2024-01-27T03:18:57;15.13;;;4.90;;
23718;SDS011;43322;52.230;5.702;2024-01-27T03:21:24;23.52;;;5.28;;
23718;SDS011;43322;52.230;5.702;2024-01-27T03:23:51;18.88;;;5.05;;
23718;SDS011;43322;52.230;5.702;2024-01-27T03:26:18;20.77;;;5.50;;
23718;SDS011;43322;52.230;5.702;2024-01-27T03:28:45;20.88;;;5.35;;
23718;SDS011;43322;52.230;5.702;2024-01-27T03:31:12;17.48;;;4.65;;
23718;SDS011;43322;52.230;5.702;2024-01-27T03:33:40;18.08;;;5.30;;
23718;SDS011;43322;52.230;5.702;2024-01-27T03:36:09;14.23;;;5.00;;
23718;SDS011;43322;52.230;5.702;2024-01-27T03:38:36;18.80;;;5.15;;
23718;SDS011;43322;52.230;5.702;2024-01-27T03:41:03;25.20;;;5.30;;
23718;SDS011;43322;52.230;5.702;2024-01-27T03:43:30;19.58;;;5.32;;
23718;SDS011;43322;52.230;5.702;2024-01-27T03:45:57;24.15;;;5.10;;
23718;SDS011;43322;52.230;5.702;2024-01-27T03:48:24;14.05;;;4.75;;
23718;SDS011;43322;52.230;5.702;2024-01-27T03:50:52;18.65;;;5.75;;
23718;SDS011;43322;52.230;5.702;2024-01-27T03:53:19;14.48;;;4.28;;
23718;SDS011;43322;52.230;5.702;2024-01-27T03:55:46;16.45;;;4.72;;
23718;SDS011;43322;52.230;5.702;2024-01-27T03:58:13;17.45;;;4.30;;
23718;SDS011;43322;52.230;5.702;2024-01-27T04:00:39;18.02;;;4.53;;
23718;SDS011;43322;52.230;5.702;2024-01-27T04:03:06;20.13;;;4.88;;
23718;SDS011;43322;52.230;5.702;2024-01-27T04:05:34;18.40;;;4.97;;
23718;SDS011;43322;52.230;5.702;2024-01-27T04:08:03;22.55;;;5.40;;
23718;SDS011;43322;52.230;5.702;2024-01-27T04:10:30;24.55;;;6.18;;
23718;SDS011;43322;52.230;5.702;2024-01-27T04:12:57;15.50;;;5.65;;
23718;SDS011;43322;52.230;5.702;2024-01-27T04:15:24;18.10;;;5.10;;
23718;SDS011;43322;52.230;5.702;2024-01-27T04:17:51;14.80;;;4.95;;
23718;SDS011;43322;52.230;5.702;2024-01-27T04:20:18;16.80;;;5.10;;
23718;SDS011;43322;52.230;5.702;2024-01-27T04:22:45;19.95;;;5.35;;
23718;SDS011;43322;52.230;5.702;2024-01-27T04:25:13;17.05;;;5.43;;
23718;SDS011;43322;52.230;5.702;2024-01-27T04:27:40;22.15;;;5.60;;
23718;SDS011;43322;52.230;5.702;2024-01-27T04:30:08;14.32;;;4.97;;
23718;SDS011;43322;52.230;5.702;2024-01-27T04:32:37;16.65;;;5.18;;
23718;SDS011;43322;52.230;5.702;2024-01-27T04:35:08;19.95;;;5.68;;
23718;SDS011;43322;52.230;5.702;2024-01-27T04:37:35;22.40;;;5.68;;
23718;SDS011;43322;52.230;5.702;2024-01-27T04:40:03;15.82;;;5.55;;
23718;SDS011;43322;52.230;5.702;2024-01-27T04:42:32;16.13;;;5.15;;
23718;SDS011;43322;52.230;5.702;2024-01-27T04:44:59;21.33;;;6.68;;
23718;SDS011;43322;52.230;5.702;2024-01-27T04:47:25;23.00;;;5.60;;
23718;SDS011;43322;52.230;5.702;2024-01-27T04:49:53;27.27;;;6.70;;
23718;SDS011;43322;52.230;5.702;2024-01-27T04:52:20;18.20;;;5.65;;
23718;SDS011;43322;52.230;5.702;2024-01-27T04:54:47;17.25;;;5.63;;
23718;SDS011;43322;52.230;5.702;2024-01-27T04:57:14;24.60;;;6.53;;
23718;SDS011;43322;52.230;5.702;2024-01-27T04:59:42;18.20;;;6.20;;
23718;SDS011;43322;52.230;5.702;2024-01-27T05:02:08;14.88;;;6.53;;
23718;SDS011;43322;52.230;5.702;2024-01-27T05:04:36;15.23;;;6.15;;
23718;SDS011;43322;52.230;5.702;2024-01-27T05:07:03;15.02;;;5.63;;
23718;SDS011;43322;52.230;5.702;2024-01-27T05:09:30;10.18;;;5.90;;
23718;SDS011;43322;52.230;5.702;2024-01-27T05:11:59;21.65;;;7.88;;
23718;SDS011;43322;52.230;5.702;2024-01-27T05:14:26;20.73;;;7.38;;
23718;SDS011;43322;52.230;5.702;2024-01-27T05:16:54;14.90;;;6.88;;
23718;SDS011;43322;52.230;5.702;2024-01-27T05:19:21;21.92;;;7.18;;
23718;SDS011;43322;52.230;5.702;2024-01-27T05:21:48;21.52;;;8.00;;
23718;SDS011;43322;52.230;5.702;2024-01-27T05:24:14;23.45;;;9.77;;
23718;SDS011;43322;52.230;5.702;2024-01-27T05:26:41;21.95;;;9.38;;
23718;SDS011;43322;52.230;5.702;2024-01-27T05:29:08;23.25;;;9.82;;
23718;SDS011;43322;52.230;5.702;2024-01-27T05:31:35;28.23;;;10.00;;
23718;SDS011;43322;52.230;5.702;2024-01-27T05:34:04;20.33;;;10.02;;
23718;SDS011;43322;52.230;5.702;2024-01-27T05:36:30;25.67;;;11.10;;
23718;SDS011;43322;52.230;5.702;2024-01-27T05:38:57;30.45;;;11.95;;
23718;SDS011;43322;52.230;5.702;2024-01-27T05:41:27;28.88;;;11.80;;
23718;SDS011;43322;52.230;5.702;2024-01-27T05:43:54;33.60;;;11.85;;
23718;SDS011;43322;52.230;5.702;2024-01-27T05:46:22;35.78;;;12.30;;
23718;SDS011;43322;52.230;5.702;2024-01-27T05:48:49;30.95;;;13.15;;
23718;SDS011;43322;52.230;5.702;2024-01-27T05:51:20;27.90;;;12.10;;
23718;SDS011;43322;52.230;5.702;2024-01-27T05:53:47;25.80;;;12.60;;
23718;SDS011;43322;52.230;5.702;2024-01-27T05:56:13;27.63;;;11.77;;
23718;SDS011;43322;52.230;5.702;2024-01-27T05:58:40;26.25;;;12.23;;
23718;SDS011;43322;52.230;5.702;2024-01-27T06:01:07;24.08;;;12.70;;
23718;SDS011;43322;52.230;5.702;2024-01-27T06:03:34;31.17;;;12.25;;
23718;SDS011;43322;52.230;5.702;2024-01-27T06:06:01;23.63;;;13.23;;
23718;SDS011;43322;52.230;5.702;2024-01-27T06:08:30;27.30;;;12.90;;
23718;SDS011;43322;52.230;5.702;2024-01-27T06:10:56;38.72;;;13.85;;
23718;SDS011;43322;52.230;5.702;2024-01-27T06:13:23;23.73;;;13.00;;
23718;SDS011;43322;52.230;5.702;2024-01-27T06:15:50;29.05;;;13.98;;
23718;SDS011;43322;52.230;5.702;2024-01-27T06:18:17;31.45;;;13.20;;
23718;SDS011;43322;52.230;5.702;2024-01-27T06:20:44;26.17;;;14.00;;
23718;SDS011;43322;52.230;5.702;2024-01-27T06:23:10;32.70;;;14.52;;
23718;SDS011;43322;52.230;5.702;2024-01-27T06:25:39;33.35;;;14.00;;
23718;SDS011;43322;52.230;5.702;2024-01-27T06:28:06;46.50;;;15.48;;
23718;SDS011;43322;52.230;5.702;2024-01-27T06:30:32;31.98;;;14.32;;
23718;SDS011;43322;52.230;5.702;2024-01-27T06:32:59;34.88;;;14.65;;
23718;SDS011;43322;52.230;5.702;2024-01-27T06:35:26;27.65;;;14.38;;
23718;SDS011;43322;52.230;5.702;2024-01-27T06:37:53;25.58;;;13.98;;
23718;SDS011;43322;52.230;5.702;2024-01-27T06:40:19;27.65;;;14.80;;
23718;SDS011;43322;52.230;5.702;2024-01-27T06:42:48;23.33;;;13.32;;
23718;SDS011;43322;52.230;5.702;2024-01-27T06:45:14;30.60;;;13.85;;
23718;SDS011;43322;52.230;5.702;2024-01-27T06:47:41;38.95;;;14.75;;
23718;SDS011;43322;52.230;5.702;2024-01-27T06:50:08;35.70;;;13.73;;
23718;SDS011;43322;52.230;5.702;2024-01-27T06:52:35;28.73;;;14.43;;
23718;SDS011;43322;52.230;5.702;2024-01-27T06:55:02;27.40;;;14.35;;
23718;SDS011;43322;52.230;5.702;2024-01-27T06:57:32;32.67;;;14.30;;
23718;SDS011;43322;52.230;5.702;2024-01-27T07:00:00;26.48;;;14.35;;
23718;SDS011;43322;52.230;5.702;2024-01-27T07:02:28;30.83;;;15.98;;
23718;SDS011;43322;52.230;5.702;2024-01-27T07:04:55;31.17;;;14.98;;
23718;SDS011;43322;52.230;5.702;2024-01-27T07:07:22;28.75;;;13.77;;
23718;SDS011;43322;52.230;5.702;2024-01-27T07:09:51;25.88;;;13.23;;
23718;SDS011;43322;52.230;5.702;2024-01-27T07:12:18;24.80;;;12.52;;
23718;SDS011;43322;52.230;5.702;2024-01-27T07:14:45;33.33;;;12.10;;
23718;SDS011;43322;52.230;5.702;2024-01-27T07:17:13;26.58;;;11.38;;
23718;SDS011;43322;52.230;5.702;2024-01-27T07:19:40;29.70;;;13.05;;
23718;SDS011;43322;52.230;5.702;2024-01-27T07:22:06;24.85;;;12.45;;
23718;SDS011;43322;52.230;5.702;2024-01-27T07:24:33;23.02;;;12.38;;
23718;SDS011;43322;52.230;5.702;2024-01-27T07:27:00;27.42;;;12.45;;
23718;SDS011;43322;52.230;5.702;2024-01-27T07:29:28;27.85;;;13.18;;
23718;SDS011;43322;52.230;5.702;2024-01-27T07:31:55;24.88;;;13.63;;
23718;SDS011;43322;52.230;5.702;2024-01-27T07:34:23;28.55;;;15.18;;
23718;SDS011;43322;52.230;5.702;2024-01-27T07:36:50;33.88;;;15.82;;
23718;SDS011;43322;52.230;5.702;2024-01-27T07:39:17;27.27;;;14.55;;
23718;SDS011;43322;52.230;5.702;2024-01-27T07:41:44;30.63;;;14.52;;
23718;SDS011;43322;52.230;5.702;2024-01-27T07:44:11;27.98;;;15.77;;
23718;SDS011;43322;52.230;5.702;2024-01-27T07:46:39;30.48;;;15.00;;
23718;SDS011;43322;52.230;5.702;2024-01-27T07:49:06;27.10;;;14.40;;
23718;SDS011;43322;52.230;5.702;2024-01-27T07:51:35;24.80;;;14.77;;
23718;SDS011;43322;52.230;5.702;2024-01-27T07:54:02;33.42;;;13.88;;
23718;SDS011;43322;52.230;5.702;2024-01-27T07:56:28;29.13;;;14.60;;
23718;SDS011;43322;52.230;5.702;2024-01-27T07:58:55;29.15;;;14.57;;
23718;SDS011;43322;52.230;5.702;2024-01-27T08:01:22;24.33;;;14.18;;
23718;SDS011;43322;52.230;5.702;2024-01-27T08:03:49;26.92;;;14.90;;
23718;SDS011;43322;52.230;5.702;2024-01-27T08:06:16;25.45;;;16.80;;
23718;SDS011;43322;52.230;5.702;2024-01-27T08:08:46;34.10;;;17.35;;
23718;SDS011;43322;52.230;5.702;2024-01-27T08:11:14;27.55;;;16.83;;
23718;SDS011;43322;52.230;5.702;2024-01-27T08:13:40;37.00;;;17.67;;
23718;SDS011;43322;52.230;5.702;2024-01-27T08:16:08;32.58;;;16.83;;
23718;SDS011;43322;52.230;5.702;2024-01-27T08:18:37;35.25;;;17.83;;
23718;SDS011;43322;52.230;5.702;2024-01-27T08:21:04;28.27;;;17.15;;
23718;SDS011;43322;52.230;5.702;2024-01-27T08:23:31;37.58;;;18.17;;
23718;SDS011;43322;52.230;5.702;2024-01-27T08:25:59;40.13;;;20.80;;
23718;SDS011;43322;52.230;5.702;2024-01-27T08:28:26;40.10;;;21.48;;
23718;SDS011;43322;52.230;5.702;2024-01-27T08:30:53;40.63;;;21.90;;
23718;SDS011;43322;52.230;5.702;2024-01-27T08:33:21;43.10;;;20.95;;
23718;SDS011;43322;52.230;5.702;2024-01-27T08:35:48;43.20;;;21.15;;
23718;SDS011;43322;52.230;5.702;2024-01-27T08:38:14;30.90;;;19.10;;
23718;SDS011;43322;52.230;5.702;2024-01-27T08:40:41;31.83;;;19.10;;
23718;SDS011;43322;52.230;5.702;2024-01-27T08:43:09;34.33;;;19.83;;
23718;SDS011;43322;52.230;5.702;2024-01-27T08:45:37;41.63;;;20.50;;
23718;SDS011;43322;52.230;5.702;2024-01-27T08:48:05;35.13;;;19.50;;
23718;SDS011;43322;52.230;5.702;2024-01-27T08:50:33;38.72;;;19.20;;
23718;SDS011;43322;52.230;5.702;2024-01-27T08:52:59;36.85;;;18.05;;
23718;SDS011;43322;52.230;5.702;2024-01-27T08:55:26;38.28;;;19.40;;
23718;SDS011;43322;52.230;5.702;2024-01-27T08:57:53;32.33;;;18.23;;
23718;SDS011;43322;52.230;5.702;2024-01-27T09:00:22;29.13;;;17.38;;
23718;SDS011;43322;52.230;5.702;2024-01-27T09:02:49;39.20;;;17.83;;
23718;SDS011;43322;52.230;5.702;2024-01-27T09:05:16;35.63;;;18.73;;
23718;SDS011;43322;52.230;5.702;2024-01-27T09:07:44;35.35;;;17.95;;
23718;SDS011;43322;52.230;5.702;2024-01-27T09:10:11;37.95;;;18.50;;
23718;SDS011;43322;52.230;5.702;2024-01-27T09:12:40;33.58;;;18.23;;
23718;SDS011;43322;52.230;5.702;2024-01-27T09:15:07;31.13;;;16.73;;
23718;SDS011;43322;52.230;5.702;2024-01-27T09:17:35;28.52;;;17.50;;
23718;SDS011;43322;52.230;5.702;2024-01-27T09:20:02;38.47;;;17.08;;
23718;SDS011;43322;52.230;5.702;2024-01-27T09:22:30;31.65;;;15.82;;
23718;SDS011;43322;52.230;5.702;2024-01-27T09:24:56;31.73;;;16.98;;
23718;SDS011;43322;52.230;5.702;2024-01-27T09:27:23;29.60;;;16.05;;
23718;SDS011;43322;52.230;5.702;2024-01-27T09:29:50;26.02;;;14.82;;
23718;SDS011;43322;52.230;5.702;2024-01-27T09:32:17;28.15;;;14.82;;
23718;SDS011;43322;52.230;5.702;2024-01-27T09:34:45;26.98;;;14.75;;
23718;SDS011;43322;52.230;5.702;2024-01-27T09:37:12;28.67;;;15.20;;
23718;SDS011;43322;52.230;5.702;2024-01-27T09:39:39;34.03;;;16.17;;
23718;SDS011;43322;52.230;5.702;2024-01-27T09:42:06;31.80;;;15.30;;
23718;SDS011;43322;52.230;5.702;2024-01-27T09:44:37;26.20;;;14.57;;
23718;SDS011;43322;52.230;5.702;2024-01-27T09:47:05;27.83;;;15.38;;
23718;SDS011;43322;52.230;5.702;2024-01-27T09:49:32;31.13;;;14.85;;
23718;SDS011;43322;52.230;5.702;2024-01-27T09:52:02;29.33;;;14.45;;
23718;SDS011;43322;52.230;5.702;2024-01-27T09:54:29;37.28;;;14.88;;
23718;SDS011;43322;52.230;5.702;2024-01-27T09:56:55;31.30;;;14.82;;
23718;SDS011;43322;52.230;5.702;2024-01-27T09:59:23;37.35;;;15.77;;
23718;SDS011;43322;52.230;5.702;2024-01-27T10:01:52;33.65;;;15.02;;
23718;SDS011;43322;52.230;5.702;2024-01-27T10:04:19;33.70;;;13.98;;
23718;SDS011;43322;52.230;5.702;2024-01-27T10:06:48;24.05;;;12.07;;
23718;SDS011;43322;52.230;5.702;2024-01-27T10:09:17;24.13;;;11.10;;
23718;SDS011;43322;52.230;5.702;2024-01-27T10:11:45;25.10;;;11.48;;
23718;SDS011;43322;52.230;5.702;2024-01-27T10:14:13;21.90;;;11.20;;
23718;SDS011;43322;52.230;5.702;2024-01-27T10:16:40;20.05;;;10.52;;
23718;SDS011;43322;52.230;5.702;2024-01-27T10:19:11;22.95;;;11.55;;
23718;SDS011;43322;52.230;5.702;2024-01-27T10:21:41;27.20;;;10.75;;
23718;SDS011;43322;52.230;5.702;2024-01-27T10:24:08;21.63;;;10.52;;
23718;SDS011;43322;52.230;5.702;2024-01-27T10:26:36;18.95;;;10.20;;
23718;SDS011;43322;52.230;5.702;2024-01-27T10:29:03;23.98;;;11.25;;
23718;SDS011;43322;52.230;5.702;2024-01-27T10:31:30;22.23;;;11.50;;
23718;SDS011;43322;52.230;5.702;2024-01-27T10:33:59;27.95;;;12.70;;
23718;SDS011;43322;52.230;5.702;2024-01-27T10:36:26;25.60;;;11.50;;
23718;SDS011;43322;52.230;5.702;2024-01-27T10:39:13;17.35;;;11.23;;
23718;SDS011;43322;52.230;5.702;2024-01-27T10:41:42;27.17;;;10.93;;
23718;SDS011;43322;52.230;5.702;2024-01-27T10:44:12;29.00;;;10.73;;
23718;SDS011;43322;52.230;5.702;2024-01-27T10:46:41;26.02;;;9.18;;
23718;SDS011;43322;52.230;5.702;2024-01-27T10:49:10;19.05;;;8.70;;
23718;SDS011;43322;52.230;5.702;2024-01-27T10:51:39;24.38;;;8.75;;
23718;SDS011;43322;52.230;5.702;2024-01-27T10:54:13;17.08;;;7.30;;
23718;SDS011;43322;52.230;5.702;2024-01-27T10:56:43;15.75;;;6.88;;
23718;SDS011;43322;52.230;5.702;2024-01-27T10:59:12;16.63;;;7.45;;
23718;SDS011;43322;52.230;5.702;2024-01-27T11:01:41;19.13;;;7.55;;
23718;SDS011;43322;52.230;5.702;2024-01-27T11:04:09;19.83;;;7.25;;
23718;SDS011;43322;52.230;5.702;2024-01-27T11:06:38;17.42;;;7.43;;
23718;SDS011;43322;52.230;5.702;2024-01-27T11:09:07;14.93;;;7.30;;
23718;SDS011;43322;52.230;5.702;2024-01-27T11:11:36;18.52;;;7.60;;
23718;SDS011;43322;52.230;5.702;2024-01-27T11:14:06;14.65;;;7.22;;
23718;SDS011;43322;52.230;5.702;2024-01-27T11:16:35;18.33;;;7.28;;
23718;SDS011;43322;52.230;5.702;2024-01-27T11:19:03;15.45;;;7.07;;
23718;SDS011;43322;52.230;5.702;2024-01-27T11:21:30;15.60;;;6.28;;
23718;SDS011;43322;52.230;5.702;2024-01-27T11:23:57;14.75;;;5.93;;
23718;SDS011;43322;52.230;5.702;2024-01-27T11:26:24;14.13;;;6.50;;
23718;SDS011;43322;52.230;5.702;2024-01-27T11:28:51;11.05;;;5.35;;
23718;SDS011;43322;52.230;5.702;2024-01-27T11:31:20;18.08;;;6.63;;
23718;SDS011;43322;52.230;5.702;2024-01-27T11:33:47;13.07;;;5.90;;
23718;SDS011;43322;52.230;5.702;2024-01-27T11:36:20;13.48;;;4.85;;
23718;SDS011;43322;52.230;5.702;2024-01-27T11:38:48;17.60;;;5.82;;
23718;SDS011;43322;52.230;5.702;2024-01-27T11:41:25;19.13;;;6.53;;
23718;SDS011;43322;52.230;5.702;2024-01-27T11:43:53;18.02;;;4.82;;
23718;SDS011;43322;52.230;5.702;2024-01-27T11:46:21;16.95;;;5.38;;
23718;SDS011;43322;52.230;5.702;2024-01-27T11:48:48;11.55;;;4.78;;
23718;SDS011;43322;52.230;5.702;2024-01-27T11:51:15;11.35;;;5.15;;
23718;SDS011;43322;52.230;5.702;2024-01-27T11:53:43;11.95;;;5.50;;
23718;SDS011;43322;52.230;5.702;2024-01-27T11:56:10;14.15;;;5.88;;
23718;SDS011;43322;52.230;5.702;2024-01-27T11:58:37;15.13;;;5.55;;
23718;SDS011;43322;52.230;5.702;2024-01-27T12:01:04;15.00;;;5.47;;
23718;SDS011;43322;52.230;5.702;2024-01-27T12:03:32;18.00;;;5.40;;
23718;SDS011;43322;52.230;5.702;2024-01-27T12:05:59;11.98;;;5.30;;
23718;SDS011;43322;52.230;5.702;2024-01-27T12:08:26;14.98;;;5.28;;
23718;SDS011;43322;52.230;5.702;2024-01-27T12:10:53;10.43;;;4.97;;
23718;SDS011;43322;52.230;5.702;2024-01-27T12:13:21;14.52;;;5.22;;
23718;SDS011;43322;52.230;5.702;2024-01-27T12:15:48;15.85;;;5.60;;
23718;SDS011;43322;52.230;5.702;2024-01-27T12:18:15;10.95;;;5.13;;
23718;SDS011;43322;52.230;5.702;2024-01-27T12:20:44;9.88;;;4.63;;
23718;SDS011;43322;52.230;5.702;2024-01-27T12:23:11;14.27;;;4.75;;
23718;SDS011;43322;52.230;5.702;2024-01-27T12:25:38;10.93;;;4.70;;
23718;SDS011;43322;52.230;5.702;2024-01-27T12:28:05;15.45;;;4.60;;
23718;SDS011;43322;52.230;5.702;2024-01-27T12:30:32;14.48;;;5.10;;
23718;SDS011;43322;52.230;5.702;2024-01-27T12:32:59;14.18;;;5.10;;
23718;SDS011;43322;52.230;5.702;2024-01-27T12:35:26;11.73;;;4.55;;
23718;SDS011;43322;52.230;5.702;2024-01-27T12:37:59;9.55;;;4.50;;
23718;SDS011;43322;52.230;5.702;2024-01-27T12:40:27;8.50;;;4.20;;
23718;SDS011;43322;52.230;5.702;2024-01-27T12:42:54;12.13;;;4.57;;
23718;SDS011;43322;52.230;5.702;2024-01-27T12:45:20;12.63;;;4.47;;
23718;SDS011;43322;52.230;5.702;2024-01-27T12:47:47;17.98;;;4.97;;
23718;SDS011;43322;52.230;5.702;2024-01-27T12:50:14;15.73;;;4.40;;
23718;SDS011;43322;52.230;5.702;2024-01-27T12:52:41;12.07;;;4.82;;
23718;SDS011;43322;52.230;5.702;2024-01-27T12:55:09;15.30;;;4.80;;
23718;SDS011;43322;52.230;5.702;2024-01-27T12:57:36;15.50;;;4.70;;
23718;SDS011;43322;52.230;5.702;2024-01-27T13:00:05;13.82;;;4.50;;
23718;SDS011;43322;52.230;5.702;2024-01-27T13:02:35;15.95;;;5.50;;
23718;SDS011;43322;52.230;5.702;2024-01-27T13:05:02;14.18;;;4.82;;
23718;SDS011;43322;52.230;5.702;2024-01-27T13:07:28;19.15;;;5.57;;
23718;SDS011;43322;52.230;5.702;2024-01-27T13:09:56;18.40;;;5.28;;
23718;SDS011;43322;52.230;5.702;2024-01-27T13:12:24;13.75;;;4.95;;
23718;SDS011;43322;52.230;5.702;2024-01-27T13:14:51;13.10;;;5.20;;
23718;SDS011;43322;52.230;5.702;2024-01-27T13:17:20;17.52;;;4.45;;
23718;SDS011;43322;52.230;5.702;2024-01-27T13:19:46;15.73;;;4.32;;
23718;SDS011;43322;52.230;5.702;2024-01-27T13:22:13;13.13;;;4.82;;
23718;SDS011;43322;52.230;5.702;2024-01-27T13:24:40;14.98;;;4.95;;
23718;SDS011;43322;52.230;5.702;2024-01-27T13:27:07;16.40;;;5.13;;
23718;SDS011;43322;52.230;5.702;2024-01-27T13:29:35;13.18;;;5.07;;
23718;SDS011;43322;52.230;5.702;2024-01-27T13:32:02;14.60;;;4.60;;
23718;SDS011;43322;52.230;5.702;2024-01-27T13:34:29;14.25;;;4.60;;
23718;SDS011;43322;52.230;5.702;2024-01-27T13:36:57;11.57;;;5.05;;
23718;SDS011;43322;52.230;5.702;2024-01-27T13:39:27;20.67;;;5.70;;
23718;SDS011;43322;52.230;5.702;2024-01-27T13:41:54;14.07;;;5.45;;
23718;SDS011;43322;52.230;5.702;2024-01-27T13:44:21;13.85;;;4.55;;
23718;SDS011;43322;52.230;5.702;2024-01-27T13:46:49;15.38;;;5.25;;
23718;SDS011;43322;52.230;5.702;2024-01-27T13:49:16;13.90;;;4.43;;
23718;SDS011;43322;52.230;5.702;2024-01-27T13:51:44;11.75;;;4.85;;
23718;SDS011;43322;52.230;5.702;2024-01-27T13:54:11;14.30;;;4.40;;
23718;SDS011;43322;52.230;5.702;2024-01-27T13:56:39;13.98;;;4.35;;
23718;SDS011;43322;52.230;5.702;2024-01-27T13:59:06;13.88;;;5.13;;
23718;SDS011;43322;52.230;5.702;2024-01-27T14:01:34;14.38;;;4.80;;
23718;SDS011;43322;52.230;5.702;2024-01-27T14:04:02;14.95;;;4.78;;
23718;SDS011;43322;52.230;5.702;2024-01-27T14:06:30;11.32;;;4.45;;
23718;SDS011;43322;52.230;5.702;2024-01-27T14:08:57;12.90;;;5.07;;
23718;SDS011;43322;52.230;5.702;2024-01-27T14:11:24;17.35;;;5.80;;
23718;SDS011;43322;52.230;5.702;2024-01-27T14:13:51;14.60;;;5.03;;
23718;SDS011;43322;52.230;5.702;2024-01-27T14:16:18;8.57;;;4.80;;
23718;SDS011;43322;52.230;5.702;2024-01-27T14:18:45;14.57;;;4.85;;
23718;SDS011;43322;52.230;5.702;2024-01-27T14:21:13;14.93;;;5.75;;
23718;SDS011;43322;52.230;5.702;2024-01-27T14:23:39;14.18;;;5.45;;
23718;SDS011;43322;52.230;5.702;2024-01-27T14:26:06;19.20;;;6.22;;
23718;SDS011;43322;52.230;5.702;2024-01-27T14:28:39;16.30;;;5.85;;
23718;SDS011;43322;52.230;5.702;2024-01-27T14:31:06;19.85;;;6.28;;